createdAt,value
2022-10-09T00:01:16.313Z,100294.44
2022-10-09T00:03:45.664Z,100287.44
2022-10-09T00:06:20.698Z,100287.41
2022-10-09T00:08:47.297Z,100275.81
2022-10-09T00:11:16.991Z,100277.66
2022-10-09T00:13:44.090Z,100275.81
2022-10-09T00:16:14.633Z,100280.13
2022-10-09T00:18:42.100Z,100273.66
2022-10-09T00:21:21.275Z,100271.72
2022-10-09T00:23:48.897Z,100270.13
2022-10-09T00:26:15.716Z,100266.63
2022-10-09T00:28:42.360Z,100267.69
2022-10-09T00:31:10.489Z,100274.41
2022-10-09T00:33:38.959Z,100274.41
2022-10-09T00:36:07.458Z,100264.69
2022-10-09T00:38:34.313Z,100273.03
2022-10-09T00:41:01.258Z,100275.22
2022-10-09T00:43:52.433Z,100267.66
2022-10-09T00:46:48.115Z,100271.16
2022-10-09T00:49:26.834Z,100257.69
2022-10-09T00:51:55.652Z,100256.91
2022-10-09T00:54:27.136Z,100265.22
2022-10-09T00:56:54.508Z,100270.56
2022-10-09T00:59:21.913Z,100259.25
2022-10-09T01:01:48.567Z,100268.38
2022-10-09T01:04:15.373Z,100268.88
2022-10-09T01:07:00.242Z,100264.00
2022-10-09T01:09:39.616Z,100267.50
2022-10-09T01:12:06.063Z,100272.56
2022-10-09T01:14:38.152Z,100263.94
2022-10-09T01:17:18.042Z,100259.28
2022-10-09T01:20:12.629Z,100257.66
2022-10-09T01:23:07.963Z,100254.69
2022-10-09T01:25:39.755Z,100253.38
2022-10-09T01:28:07.833Z,100250.13
2022-10-09T01:30:35.409Z,100240.69
2022-10-09T01:33:03.160Z,100250.09
2022-10-09T01:35:30.921Z,100243.34
2022-10-09T01:37:59.634Z,100233.09
2022-10-09T01:40:28.395Z,100229.00
2022-10-09T01:42:55.518Z,100229.28
2022-10-09T01:45:22.040Z,100223.88
2022-10-09T01:47:48.773Z,100220.31
2022-10-09T01:50:15.222Z,100216.25
2022-10-09T01:52:54.561Z,100220.28
2022-10-09T01:55:42.725Z,100220.50
2022-10-09T01:58:09.218Z,100222.88
2022-10-09T02:00:44.281Z,100220.97
2022-10-09T02:03:14.463Z,100215.06
2022-10-09T02:05:43.200Z,100211.81
2022-10-09T02:08:15.073Z,100210.41
2022-10-09T02:10:43.688Z,100204.69
2022-10-09T02:13:10.712Z,100206.84
2022-10-09T02:15:50.693Z,100208.66
2022-10-09T02:18:29.603Z,100204.59
2022-10-09T02:21:01.658Z,100207.81
2022-10-09T02:23:28.904Z,100208.50
2022-10-09T02:25:55.723Z,100192.94
2022-10-09T02:28:22.803Z,100198.56
2022-10-09T02:31:01.429Z,100185.13
2022-10-09T02:33:32.761Z,100188.91
2022-10-09T02:35:59.444Z,100185.47
2022-10-09T02:38:26.559Z,100189.53
2022-10-09T02:40:53.081Z,100194.91
2022-10-09T02:43:19.728Z,100196.78
2022-10-09T02:45:46.257Z,100188.44
2022-10-09T02:48:12.767Z,100189.19
2022-10-09T02:50:39.312Z,100185.38
2022-10-09T02:53:05.852Z,100185.34
2022-10-09T02:55:32.412Z,100181.50
2022-10-09T02:57:58.917Z,100176.91
2022-10-09T03:00:25.457Z,100176.41
2022-10-09T03:02:52.768Z,100172.09
2022-10-09T03:05:19.590Z,100177.47
2022-10-09T03:07:51.315Z,100173.72
2022-10-09T03:10:19.684Z,100160.53
2022-10-09T03:12:47.044Z,100172.59
2022-10-09T03:15:14.112Z,100156.94
2022-10-09T03:17:40.663Z,100163.94
2022-10-09T03:20:08.023Z,100160.78
2022-10-09T03:22:34.586Z,100151.66
2022-10-09T03:25:01.095Z,100158.91
2022-10-09T03:27:27.627Z,100149.78
2022-10-09T03:29:54.161Z,100150.84
2022-10-09T03:32:20.695Z,100155.97
2022-10-09T03:34:47.209Z,100155.97
2022-10-09T03:37:13.808Z,100150.59
2022-10-09T03:39:40.306Z,100154.91
2022-10-09T03:42:06.833Z,100149.53
2022-10-09T03:44:33.407Z,100144.72
2022-10-09T03:47:00.104Z,100151.94
2022-10-09T03:49:26.679Z,100150.09
2022-10-09T03:51:53.173Z,100142.78
2022-10-09T03:54:19.767Z,100146.53
2022-10-09T03:56:46.302Z,100138.72
2022-10-09T03:59:13.001Z,100142.22
2022-10-09T04:01:39.855Z,100145.72
2022-10-09T04:04:06.388Z,100145.41
2022-10-09T04:06:33.057Z,100149.97
2022-10-09T04:09:01.264Z,100144.59
2022-10-09T04:11:27.755Z,100145.41
2022-10-09T04:13:54.412Z,100142.72
2022-10-09T04:16:21.036Z,100147.84
2022-10-09T04:18:47.966Z,100144.91
2022-10-09T04:21:14.533Z,100149.47
2022-10-09T04:23:41.076Z,100149.97
2022-10-09T04:26:07.629Z,100151.84
2022-10-09T04:28:34.261Z,100149.91
2022-10-09T04:31:01.794Z,100143.97
2022-10-09T04:33:28.392Z,100143.19
2022-10-09T04:35:56.028Z,100135.38
2022-10-09T04:38:23.680Z,100144.50
2022-10-09T04:41:01.400Z,100145.78
2022-10-09T04:43:29.039Z,100139.63
2022-10-09T04:45:55.914Z,100146.06
2022-10-09T04:48:22.920Z,100137.44
2022-10-09T04:50:49.515Z,100134.75
2022-10-09T04:53:16.064Z,100136.63
2022-10-09T04:55:43.568Z,100135.81
2022-10-09T04:58:11.722Z,100139.63
2022-10-09T05:00:46.455Z,100133.25
2022-10-09T05:03:13.318Z,100129.38
2022-10-09T05:05:39.886Z,100136.97
2022-10-09T05:08:06.694Z,100132.75
2022-10-09T05:10:33.332Z,100125.59
2022-10-09T05:13:00.042Z,100126.50
2022-10-09T05:15:27.037Z,100123.53
2022-10-09T05:17:53.615Z,100123.41
2022-10-09T05:20:20.186Z,100119.03
2022-10-09T05:22:47.786Z,100120.06
2022-10-09T05:25:14.641Z,100123.81
2022-10-09T05:27:41.421Z,100118.16
2022-10-09T05:30:09.020Z,100112.66
2022-10-09T05:32:35.706Z,100108.50
2022-10-09T05:35:02.237Z,100111.13
2022-10-09T05:37:28.767Z,100115.59
2022-10-09T05:39:55.360Z,100119.34
2022-10-09T05:42:21.898Z,100116.41
2022-10-09T05:44:48.537Z,100114.53
2022-10-09T05:47:17.905Z,100113.91
2022-10-09T05:49:44.411Z,100117.97
2022-10-09T05:52:11.070Z,100108.22
2022-10-09T05:54:37.593Z,100109.84
2022-10-09T05:57:04.977Z,100114.16
2022-10-09T05:59:31.585Z,100108.69
2022-10-09T06:01:59.148Z,100107.09
2022-10-09T06:04:25.802Z,100107.09
2022-10-09T06:06:52.393Z,100104.31
2022-10-09T06:09:25.395Z,100115.25
2022-10-09T06:11:53.998Z,100109.94
2022-10-09T06:14:24.493Z,100106.44
2022-10-09T06:16:51.239Z,100109.56
2022-10-09T06:19:19.453Z,100112.28
2022-10-09T06:21:47.254Z,100104.47
2022-10-09T06:24:22.240Z,100111.72
2022-10-09T06:26:51.047Z,100106.28
2022-10-09T06:29:17.486Z,100109.00
2022-10-09T06:31:44.020Z,100105.13
2022-10-09T06:34:11.139Z,100106.72
2022-10-09T06:36:37.787Z,100104.50
2022-10-09T06:39:06.729Z,100110.72
2022-10-09T06:41:34.223Z,100104.09
2022-10-09T06:44:06.387Z,100106.78
2022-10-09T06:46:37.964Z,100111.59
2022-10-09T06:49:06.293Z,100116.00
2022-10-09T06:51:34.272Z,100117.69
2022-10-09T06:54:03.344Z,100121.00
2022-10-09T06:56:32.222Z,100113.03
2022-10-09T06:59:03.709Z,100115.25
2022-10-09T07:01:32.252Z,100123.38
2022-10-09T07:04:07.319Z,100120.88
2022-10-09T07:06:37.253Z,100113.03
2022-10-09T07:09:07.220Z,100120.56
2022-10-09T07:11:39.460Z,100115.69
2022-10-09T07:14:08.034Z,100119.44
2022-10-09T07:16:37.653Z,100109.84
2022-10-09T07:19:07.738Z,100117.56
2022-10-09T07:21:38.521Z,100118.56
2022-10-09T07:24:06.041Z,100116.53
2022-10-09T07:26:35.991Z,100108.09
2022-10-09T07:29:04.273Z,100102.72
2022-10-09T07:31:30.826Z,100107.38
2022-10-09T07:33:57.706Z,100106.88
2022-10-09T07:36:24.445Z,100103.78
2022-10-09T07:38:55.515Z,100107.59
2022-10-09T07:41:24.313Z,100102.13
2022-10-09T07:43:51.013Z,100099.53
2022-10-09T07:46:20.083Z,100094.75
2022-10-09T07:48:47.305Z,100097.97
2022-10-09T07:51:19.876Z,100086.56
2022-10-09T07:53:47.482Z,100088.81
2022-10-09T07:56:19.734Z,100089.63
2022-10-09T07:58:54.579Z,100091.50
2022-10-09T08:01:22.747Z,100093.28
2022-10-09T08:03:50.050Z,100099.59
2022-10-09T08:06:18.218Z,100094.84
2022-10-09T08:08:45.406Z,100094.06
2022-10-09T08:11:15.199Z,100095.16
2022-10-09T08:13:42.815Z,100096.25
2022-10-09T08:16:09.783Z,100087.31
2022-10-09T08:18:37.046Z,100089.75
2022-10-09T08:21:07.481Z,100084.38
2022-10-09T08:23:34.274Z,100086.50
2022-10-09T08:26:00.921Z,100074.56
2022-10-09T08:28:27.573Z,100073.44
2022-10-09T08:30:54.209Z,100067.50
2022-10-09T08:33:23.282Z,100071.78
2022-10-09T08:35:50.384Z,100067.94
2022-10-09T08:38:37.520Z,100068.97
2022-10-09T08:41:09.264Z,100058.88
2022-10-09T08:43:41.599Z,100056.69
2022-10-09T08:46:20.906Z,100059.56
2022-10-09T08:48:49.363Z,100055.47
2022-10-09T08:51:23.496Z,100050.31
2022-10-09T08:54:22.880Z,100051.06
2022-10-09T08:56:51.844Z,100052.31
2022-10-09T08:59:18.377Z,100046.78
2022-10-09T09:02:13.131Z,100049.09
2022-10-09T09:04:58.349Z,100042.94
2022-10-09T09:07:40.578Z,100038.69
2022-10-09T09:10:22.195Z,100033.69
2022-10-09T09:13:02.808Z,100031.34
2022-10-09T09:16:03.546Z,100022.25
2022-10-09T09:18:51.311Z,100020.69
2022-10-09T09:21:37.964Z,100017.56
2022-10-09T09:24:13.921Z,100011.16
2022-10-09T09:26:43.371Z,100009.31
2022-10-09T09:29:13.959Z,99997.19
2022-10-09T09:31:41.504Z,100004.06
2022-10-09T09:34:36.388Z,99994.69
2022-10-09T09:37:03.434Z,99986.25
2022-10-09T09:40:24.217Z,99993.41
2022-10-09T09:42:21.256Z,99979.03
2022-10-09T09:45:02.970Z,99976.53
2022-10-09T09:47:47.770Z,99977.66
2022-10-09T09:50:35.097Z,99964.34
2022-10-09T09:53:05.106Z,99952.66
2022-10-09T09:55:33.849Z,99955.06
2022-10-09T09:58:03.865Z,99956.31
2022-10-09T10:00:30.770Z,99943.97
2022-10-09T10:03:15.210Z,99950.75
2022-10-09T10:05:43.597Z,99947.81
2022-10-09T10:08:14.856Z,99952.00
2022-10-09T10:10:47.718Z,99934.94
2022-10-09T10:13:23.533Z,99936.91
2022-10-09T10:15:55.897Z,99930.69
2022-10-09T10:18:25.830Z,99928.84
2022-10-09T10:20:55.921Z,99915.16
2022-10-09T10:23:32.959Z,99910.88
2022-10-09T10:26:03.655Z,99907.56
2022-10-09T10:28:45.350Z,99902.47
2022-10-09T10:31:21.861Z,99900.56
2022-10-09T10:33:54.221Z,99898.19
2022-10-09T10:36:20.998Z,99889.38
2022-10-09T10:39:00.742Z,99885.88
2022-10-09T10:41:42.516Z,99886.34
2022-10-09T10:44:18.144Z,99886.53
2022-10-09T10:46:52.435Z,99868.56
2022-10-09T10:49:22.049Z,99872.91
2022-10-09T10:52:20.301Z,99871.59
2022-10-09T10:55:13.715Z,99869.81
2022-10-09T10:57:50.608Z,99862.56
2022-10-09T11:00:17.822Z,99856.28
2022-10-09T11:03:10.136Z,99852.41
2022-10-09T11:05:40.238Z,99840.81
2022-10-09T11:08:21.526Z,99838.06
2022-10-09T11:11:03.149Z,99841.25
2022-10-09T11:13:46.186Z,99837.22
2022-10-09T11:16:54.326Z,99836.72
2022-10-09T11:19:45.655Z,99832.44
2022-10-09T11:22:22.242Z,99832.88
2022-10-09T11:25:04.834Z,99827.03
2022-10-09T11:27:51.895Z,99825.72
2022-10-09T11:30:19.632Z,99819.06
2022-10-09T11:33:12.646Z,99822.50
2022-10-09T11:35:58.605Z,99810.69
2022-10-09T11:39:03.227Z,99810.91
2022-10-09T11:41:31.127Z,99807.31
2022-10-09T11:44:06.631Z,99812.19
2022-10-09T11:46:54.626Z,99799.44
2022-10-09T11:49:58.065Z,99803.31
2022-10-09T11:52:36.711Z,99792.63
2022-10-09T11:55:21.365Z,99788.78
2022-10-09T11:57:48.307Z,99787.44
2022-10-09T12:00:15.647Z,99784.50
2022-10-09T12:02:43.675Z,99791.03
2022-10-09T12:05:35.403Z,99779.44
2022-10-09T12:08:14.068Z,99772.38
2022-10-09T12:10:53.160Z,99772.28
2022-10-09T12:13:53.829Z,99768.47
2022-10-09T12:16:39.752Z,99765.63
2022-10-09T12:19:24.889Z,99751.38
2022-10-09T12:22:11.606Z,99750.78
2022-10-09T12:24:41.694Z,99741.47
2022-10-09T12:27:16.084Z,99735.78
2022-10-09T12:29:50.859Z,99740.66
2022-10-09T12:32:32.323Z,99735.31
2022-10-09T12:35:01.040Z,99725.59
2022-10-09T12:37:36.863Z,99726.28
2022-10-09T12:40:20.960Z,99712.13
2022-10-09T12:42:47.836Z,99715.91
2022-10-09T12:45:21.327Z,99711.25
2022-10-09T12:47:49.047Z,99706.66
2022-10-09T12:50:31.957Z,99706.66
2022-10-09T12:53:00.209Z,99695.72
2022-10-09T12:55:28.810Z,99691.03
2022-10-09T12:58:01.003Z,99692.53
2022-10-09T13:00:27.680Z,99685.19
2022-10-09T13:02:54.925Z,99684.06
2022-10-09T13:05:22.033Z,99694.66
2022-10-09T13:07:54.264Z,99673.69
2022-10-09T13:10:23.819Z,99677.47
2022-10-09T13:12:52.752Z,99681.13
2022-10-09T13:15:35.323Z,99669.56
2022-10-09T13:18:13.943Z,99668.00
2022-10-09T13:20:40.586Z,99658.53
2022-10-09T13:23:07.210Z,99651.78
2022-10-09T13:25:40.845Z,99656.78
2022-10-09T13:28:07.882Z,99646.91
2022-10-09T13:30:34.618Z,99636.44
2022-10-09T13:33:01.245Z,99634.72
2022-10-09T13:35:27.800Z,99626.78
2022-10-09T13:37:54.343Z,99628.63
2022-10-09T13:40:21.983Z,99631.47
2022-10-09T13:42:57.782Z,99622.03
2022-10-09T13:45:24.485Z,99616.78
2022-10-09T13:47:51.671Z,99623.28
2022-10-09T13:50:19.745Z,99614.88
2022-10-09T13:52:46.741Z,99612.72
2022-10-09T13:55:14.666Z,99604.31
2022-10-09T13:57:41.385Z,99593.94
2022-10-09T14:00:08.708Z,99597.78
2022-10-09T14:02:35.259Z,99594.84
2022-10-09T14:05:01.777Z,99580.09
2022-10-09T14:07:28.394Z,99588.16
2022-10-09T14:09:54.927Z,99579.19
2022-10-09T14:12:21.471Z,99567.44
2022-10-09T14:14:48.038Z,99572.66
2022-10-09T14:17:14.579Z,99566.38
2022-10-09T14:19:41.170Z,99557.28
2022-10-09T14:22:07.717Z,99558.47
2022-10-09T14:24:34.490Z,99549.38
2022-10-09T14:27:01.064Z,99544.97
2022-10-09T14:29:27.607Z,99549.28
2022-10-09T14:31:54.138Z,99544.16
2022-10-09T14:34:20.755Z,99540.22
2022-10-09T14:36:47.905Z,99533.16
2022-10-09T14:39:15.056Z,99534.72
2022-10-09T14:41:42.129Z,99535.13
2022-10-09T14:44:09.409Z,99530.34
2022-10-09T14:46:37.832Z,99532.34
2022-10-09T14:49:07.900Z,99529.16
2022-10-09T14:51:37.348Z,99518.47
2022-10-09T14:54:05.696Z,99516.47
2022-10-09T14:56:32.397Z,99506.97
2022-10-09T14:59:01.042Z,99505.78
2022-10-09T15:01:29.582Z,99499.03
2022-10-09T15:03:56.581Z,99499.44
2022-10-09T15:06:27.704Z,99501.78
2022-10-09T15:08:59.240Z,99497.41
2022-10-09T15:11:29.867Z,99499.00
2022-10-09T15:13:56.694Z,99490.28
2022-10-09T15:16:23.716Z,99495.44
2022-10-09T15:18:51.807Z,99488.31
2022-10-09T15:21:21.860Z,99482.34
2022-10-09T15:23:49.635Z,99485.13
2022-10-09T15:26:16.565Z,99476.00
2022-10-09T15:28:44.242Z,99480.00
2022-10-09T15:31:43.029Z,99479.63
2022-10-09T15:34:16.758Z,99476.06
2022-10-09T15:36:45.783Z,99476.06
2022-10-09T15:39:13.833Z,99474.47
2022-10-09T15:41:42.182Z,99465.41
2022-10-09T15:44:20.693Z,99468.19
2022-10-09T15:46:48.679Z,99466.97
2022-10-09T15:49:15.388Z,99466.16
2022-10-09T15:51:42.009Z,99475.19
2022-10-09T15:54:08.791Z,99481.84
2022-10-09T15:56:39.610Z,99472.84
2022-10-09T15:59:06.980Z,99466.16
2022-10-09T16:01:33.565Z,99475.78
2022-10-09T16:04:00.116Z,99480.75
2022-10-09T16:06:26.958Z,99476.78
2022-10-09T16:08:57.439Z,99469.84
2022-10-09T16:11:26.594Z,99472.63
2022-10-09T16:13:55.388Z,99473.16
2022-10-09T16:16:25.012Z,99476.22
2022-10-09T16:18:52.054Z,99471.81
2022-10-09T16:21:21.471Z,99478.44
2022-10-09T16:23:48.451Z,99478.47
2022-10-09T16:26:17.931Z,99477.72
2022-10-09T16:28:45.718Z,99479.44
2022-10-09T16:31:27.156Z,99481.97
2022-10-09T16:33:54.252Z,99482.19
2022-10-09T16:36:20.936Z,99488.66
2022-10-09T16:38:47.678Z,99486.50
2022-10-09T16:41:17.957Z,99491.38
2022-10-09T16:43:47.149Z,99490.31
2022-10-09T16:46:23.369Z,99489.41
2022-10-09T16:48:51.189Z,99496.66
2022-10-09T16:51:21.864Z,99500.38
2022-10-09T16:53:50.815Z,99492.19
2022-10-09T16:56:22.978Z,99496.03
2022-10-09T16:58:49.907Z,99490.13
2022-10-09T17:01:16.540Z,99491.91
2022-10-09T17:03:43.192Z,99508.56
2022-10-09T17:06:12.877Z,99501.81
2022-10-09T17:08:39.743Z,99503.56
2022-10-09T17:11:11.778Z,99497.97
2022-10-09T17:13:38.769Z,99504.19
2022-10-09T17:16:17.085Z,99508.13
2022-10-09T17:18:45.509Z,99503.47
2022-10-09T17:21:13.524Z,99504.28
2022-10-09T17:23:40.478Z,99507.09
2022-10-09T17:26:13.106Z,99510.59
2022-10-09T17:28:40.838Z,99512.66
2022-10-09T17:31:14.319Z,99518.25
2022-10-09T17:33:42.945Z,99505.09
2022-10-09T17:36:10.574Z,99513.41
2022-10-09T17:38:37.618Z,99511.59
2022-10-09T17:41:05.497Z,99515.78
2022-10-09T17:43:32.479Z,99517.50
2022-10-09T17:46:00.610Z,99513.31
2022-10-09T17:48:27.919Z,99517.28
2022-10-09T17:50:56.808Z,99514.22
2022-10-09T17:53:23.582Z,99522.16
2022-10-09T17:55:55.173Z,99518.78
2022-10-09T17:58:23.648Z,99524.63
2022-10-09T18:00:51.162Z,99522.53
2022-10-09T18:03:18.469Z,99524.59
2022-10-09T18:05:47.899Z,99522.00
2022-10-09T18:08:16.245Z,99517.47
2022-10-09T18:10:43.511Z,99518.41
2022-10-09T18:13:11.190Z,99518.19
2022-10-09T18:15:42.974Z,99517.84
2022-10-09T18:18:11.372Z,99516.03
2022-10-09T18:20:39.199Z,99508.03
2022-10-09T18:23:07.532Z,99514.84
2022-10-09T18:25:35.279Z,99514.69
2022-10-09T18:28:01.804Z,99510.50
2022-10-09T18:30:28.383Z,99510.59
2022-10-09T18:32:54.962Z,99511.19
2022-10-09T18:35:21.597Z,99502.91
2022-10-09T18:37:48.097Z,99510.34
2022-10-09T18:40:14.853Z,99509.34
2022-10-09T18:42:41.441Z,99512.16
2022-10-09T18:45:10.027Z,99511.78
2022-10-09T18:47:36.654Z,99510.78
2022-10-09T18:50:07.754Z,99512.00
2022-10-09T18:52:35.667Z,99509.09
2022-10-09T18:55:03.947Z,99501.06
2022-10-09T18:57:30.632Z,99495.75
2022-10-09T18:59:58.478Z,99495.56
2022-10-09T19:02:27.103Z,99495.69
2022-10-09T19:04:54.730Z,99496.25
2022-10-09T19:07:21.554Z,99490.44
2022-10-09T19:09:56.315Z,99486.75
2022-10-09T19:12:24.569Z,99486.53
2022-10-09T19:14:51.640Z,99489.31
2022-10-09T19:17:18.228Z,99486.72
2022-10-09T19:19:44.810Z,99484.28
2022-10-09T19:22:15.829Z,99483.00
2022-10-09T19:24:44.243Z,99490.13
2022-10-09T19:27:10.890Z,99480.69
2022-10-09T19:29:37.536Z,99486.22
2022-10-09T19:32:04.200Z,99484.69
2022-10-09T19:34:30.906Z,99482.09
2022-10-09T19:36:57.915Z,99482.69
2022-10-09T19:39:24.492Z,99486.50
2022-10-09T19:41:51.235Z,99483.28
2022-10-09T19:44:18.647Z,99484.38
2022-10-09T19:46:45.945Z,99483.56
2022-10-09T19:49:12.649Z,99491.88
2022-10-09T19:51:39.693Z,99479.69
2022-10-09T19:54:08.443Z,99485.88
2022-10-09T19:56:36.177Z,99489.97
2022-10-09T19:59:05.742Z,99485.66
2022-10-09T20:01:35.421Z,99480.06
2022-10-09T20:04:05.505Z,99482.25
2022-10-09T20:06:32.295Z,99475.81
2022-10-09T20:08:59.212Z,99483.16
2022-10-09T20:11:26.577Z,99474.03
2022-10-09T20:13:55.925Z,99475.91
2022-10-09T20:16:24.185Z,99473.53
2022-10-09T20:18:50.833Z,99475.19
2022-10-09T20:21:18.301Z,99475.00
2022-10-09T20:23:45.089Z,99481.00
2022-10-09T20:26:18.060Z,99475.38
2022-10-09T20:28:46.266Z,99473.28
2022-10-09T20:31:16.454Z,99472.78
2022-10-09T20:33:43.202Z,99480.38
2022-10-09T20:36:19.559Z,99483.16
2022-10-09T20:38:46.091Z,99483.16
2022-10-09T20:41:12.870Z,99483.75
2022-10-09T20:43:40.279Z,99483.22
2022-10-09T20:46:08.655Z,99480.34
2022-10-09T20:48:35.748Z,99479.00
2022-10-09T20:51:03.072Z,99482.31
2022-10-09T20:53:29.771Z,99479.09
2022-10-09T20:56:06.737Z,99473.19
2022-10-09T20:58:33.810Z,99473.47
2022-10-09T21:01:00.646Z,99475.66
2022-10-09T21:03:27.293Z,99472.47
2022-10-09T21:05:53.829Z,99473.84
2022-10-09T21:08:20.411Z,99477.13
2022-10-09T21:10:49.206Z,99472.81
2022-10-09T21:13:16.908Z,99471.22
2022-10-09T21:15:48.652Z,99474.50
2022-10-09T21:18:17.309Z,99472.91
2022-10-09T21:20:46.839Z,99465.41
2022-10-09T21:23:15.718Z,99471.91
2022-10-09T21:25:53.325Z,99466.81
2022-10-09T21:28:21.134Z,99475.22
2022-10-09T21:30:48.420Z,99468.50
2022-10-09T21:33:15.581Z,99473.59
2022-10-09T21:35:44.905Z,99478.50
2022-10-09T21:38:14.575Z,99476.88
2022-10-09T21:40:41.628Z,99472.06
2022-10-09T21:43:08.816Z,99479.66
2022-10-09T21:45:35.792Z,99476.22
2022-10-09T21:48:02.422Z,99470.63
2022-10-09T21:50:29.036Z,99474.97
2022-10-09T21:52:55.908Z,99468.28
2022-10-09T21:55:22.433Z,99475.38
2022-10-09T21:57:49.230Z,99465.13
2022-10-09T22:00:15.946Z,99459.78
2022-10-09T22:02:42.554Z,99468.47
2022-10-09T22:05:09.794Z,99474.47
2022-10-09T22:07:36.543Z,99468.81
2022-10-09T22:10:04.374Z,99475.84
2022-10-09T22:12:30.929Z,99463.22
2022-10-09T22:14:57.463Z,99456.50
2022-10-09T22:17:24.064Z,99458.41
2022-10-09T22:19:50.921Z,99461.38
2022-10-09T22:22:17.772Z,99461.97
2022-10-09T22:24:44.341Z,99464.94
2022-10-09T22:27:10.873Z,99464.75
2022-10-09T22:29:38.426Z,99466.94
2022-10-09T22:32:06.024Z,99464.00
2022-10-09T22:34:32.825Z,99463.00
2022-10-09T22:36:59.258Z,99459.59
2022-10-09T22:39:25.897Z,99459.22
2022-10-09T22:41:52.456Z,99457.84
2022-10-09T22:44:19.020Z,99457.25
2022-10-09T22:46:45.730Z,99452.09
2022-10-09T22:49:14.703Z,99452.38
2022-10-09T22:51:41.318Z,99449.50
2022-10-09T22:54:08.529Z,99452.75
2022-10-09T22:56:40.319Z,99446.03
2022-10-09T22:59:08.658Z,99443.31
2022-10-09T23:01:45.303Z,99451.94
2022-10-09T23:04:14.538Z,99460.84
2022-10-09T23:06:41.557Z,99451.41
2022-10-09T23:09:11.304Z,99445.00
2022-10-09T23:11:37.956Z,99453.66
2022-10-09T23:14:04.521Z,99439.13
2022-10-09T23:16:31.267Z,99453.69
2022-10-09T23:19:05.403Z,99454.28
2022-10-09T23:21:33.497Z,99445.66
2022-10-09T23:24:00.052Z,99444.38
2022-10-09T23:26:29.452Z,99442.22
2022-10-09T23:28:59.910Z,99447.09
2022-10-09T23:31:27.305Z,99444.19
2022-10-09T23:33:54.796Z,99442.59
2022-10-09T23:36:23.985Z,99443.69
2022-10-09T23:38:51.242Z,99434.78
2022-10-09T23:41:20.781Z,99445.56
2022-10-09T23:43:48.513Z,99438.56
2022-10-09T23:46:18.536Z,99429.94
2022-10-09T23:48:46.236Z,99436.72
2022-10-09T23:51:14.224Z,99432.47
2022-10-09T23:53:41.599Z,99431.94
2022-10-09T23:56:18.821Z,99435.81
2022-10-09T23:58:45.650Z,99432.59
